createdAt,value
2022-10-04T00:00:42.602Z,1.73
2022-10-04T00:03:11.347Z,1.53
2022-10-04T00:05:39.617Z,1.40
2022-10-04T00:08:13.450Z,1.50
2022-10-04T00:10:40.969Z,1.37
2022-10-04T00:13:15.652Z,1.47
2022-10-04T00:15:44.549Z,1.40
2022-10-04T00:18:21.584Z,1.30
2022-10-04T00:21:02.861Z,1.33
2022-10-04T00:23:41.140Z,1.30
2022-10-04T00:26:12.386Z,1.30
2022-10-04T00:28:44.018Z,1.30
2022-10-04T00:31:24.626Z,1.33
2022-10-04T00:33:53.506Z,1.20
2022-10-04T00:36:39.714Z,1.43
2022-10-04T00:39:27.336Z,2.17
2022-10-04T00:41:58.758Z,1.40
2022-10-04T00:44:29.846Z,1.40
2022-10-04T00:47:00.616Z,1.43
2022-10-04T00:49:30.567Z,1.30
2022-10-04T00:52:00.559Z,1.63
2022-10-04T00:54:30.900Z,1.70
2022-10-04T00:57:00.231Z,1.53
2022-10-04T00:59:34.583Z,1.70
2022-10-04T01:02:04.728Z,1.57
2022-10-04T01:04:36.906Z,1.43
2022-10-04T01:07:05.192Z,1.53
2022-10-04T01:09:34.708Z,1.73
2022-10-04T01:12:05.144Z,1.63
2022-10-04T01:14:36.693Z,1.50
2022-10-04T01:17:05.798Z,1.53
2022-10-04T01:19:33.886Z,1.57
2022-10-04T01:22:11.266Z,1.90
2022-10-04T01:24:41.044Z,1.40
2022-10-04T01:27:33.422Z,1.37
2022-10-04T01:30:01.433Z,1.80
2022-10-04T01:32:30.776Z,1.60
2022-10-04T01:34:58.573Z,1.17
2022-10-04T01:37:26.145Z,2.13
2022-10-04T01:39:55.780Z,1.80
2022-10-04T01:42:24.973Z,2.17
2022-10-04T01:44:56.303Z,1.60
2022-10-04T01:47:27.175Z,1.60
2022-10-04T01:49:57.794Z,1.50
2022-10-04T01:52:29.050Z,1.40
2022-10-04T01:55:02.212Z,1.57
2022-10-04T01:57:33.258Z,1.40
2022-10-04T02:00:02.657Z,1.70
2022-10-04T02:02:34.692Z,1.60
2022-10-04T02:05:03.623Z,2.00
2022-10-04T02:07:33.413Z,1.80
2022-10-04T02:10:04.743Z,1.33
2022-10-04T02:12:32.698Z,1.73
2022-10-04T02:15:01.867Z,2.13
2022-10-04T02:17:31.289Z,2.20
2022-10-04T02:19:59.591Z,2.10
2022-10-04T02:22:27.423Z,2.00
2022-10-04T02:24:56.908Z,2.07
2022-10-04T02:27:29.114Z,2.17
2022-10-04T02:30:00.913Z,2.20
2022-10-04T02:32:47.835Z,1.97
2022-10-04T02:35:15.871Z,2.00
2022-10-04T02:37:43.337Z,2.43
2022-10-04T02:40:13.906Z,2.00
2022-10-04T02:42:45.486Z,2.30
2022-10-04T02:45:17.563Z,2.07
2022-10-04T02:47:46.299Z,2.10
2022-10-04T02:50:21.074Z,2.30
2022-10-04T02:52:50.431Z,2.40
2022-10-04T02:55:21.481Z,2.27
2022-10-04T02:57:52.403Z,2.70
2022-10-04T03:00:21.254Z,2.10
2022-10-04T03:03:15.903Z,2.23
2022-10-04T03:05:44.401Z,2.60
2022-10-04T03:08:12.113Z,2.13
2022-10-04T03:10:40.042Z,2.30
2022-10-04T03:13:09.323Z,2.07
2022-10-04T03:15:36.814Z,1.53
2022-10-04T03:18:04.399Z,2.17
2022-10-04T03:20:32.119Z,2.00
2022-10-04T03:22:59.612Z,2.07
2022-10-04T03:25:29.514Z,1.77
2022-10-04T03:28:00.468Z,2.20
2022-10-04T03:30:29.547Z,2.10
2022-10-04T03:32:57.149Z,2.40
2022-10-04T03:35:29.017Z,2.00
2022-10-04T03:37:57.811Z,2.43
2022-10-04T03:40:27.173Z,1.80
2022-10-04T03:42:55.130Z,1.83
2022-10-04T03:45:24.154Z,2.30
2022-10-04T03:47:53.768Z,2.10
2022-10-04T03:50:23.829Z,1.77
2022-10-04T03:52:53.953Z,2.20
2022-10-04T03:55:22.141Z,2.43
2022-10-04T03:57:50.224Z,2.47
2022-10-04T04:00:18.942Z,2.70
2022-10-04T04:02:49.810Z,2.33
2022-10-04T04:05:20.738Z,2.37
2022-10-04T04:07:51.641Z,2.80
2022-10-04T04:10:22.042Z,2.53
2022-10-04T04:12:54.377Z,2.70
2022-10-04T04:15:22.093Z,2.70
2022-10-04T04:17:52.193Z,3.07
2022-10-04T04:20:23.187Z,2.90
2022-10-04T04:22:55.034Z,2.70
2022-10-04T04:25:24.861Z,3.03
2022-10-04T04:27:54.023Z,3.97
2022-10-04T04:30:21.566Z,3.20
2022-10-04T04:32:51.011Z,2.80
2022-10-04T04:35:23.656Z,2.80
2022-10-04T04:38:03.234Z,3.00
2022-10-04T04:40:30.734Z,2.80
2022-10-04T04:42:59.178Z,3.60
2022-10-04T04:45:29.957Z,3.60
2022-10-04T04:47:58.142Z,3.57
2022-10-04T04:50:30.434Z,2.80
2022-10-04T04:53:00.670Z,3.30
2022-10-04T04:55:44.472Z,2.70
2022-10-04T04:58:21.367Z,3.17
2022-10-04T05:00:53.421Z,2.87
2022-10-04T05:03:20.962Z,2.60
2022-10-04T05:05:50.835Z,2.43
2022-10-04T05:08:20.626Z,2.77
2022-10-04T05:10:50.032Z,2.67
2022-10-04T05:13:19.970Z,3.00
2022-10-04T05:15:47.990Z,3.07
2022-10-04T05:18:23.032Z,2.80
2022-10-04T05:20:54.110Z,2.87
2022-10-04T05:23:21.963Z,3.43
2022-10-04T05:25:50.583Z,3.30
2022-10-04T05:28:18.816Z,3.50
2022-10-04T05:30:49.949Z,3.30
2022-10-04T05:33:22.514Z,3.03
2022-10-04T05:35:59.007Z,3.20
2022-10-04T05:38:33.897Z,3.20
2022-10-04T05:41:05.352Z,3.10
2022-10-04T05:43:36.362Z,3.23
2022-10-04T05:46:27.771Z,2.80
2022-10-04T05:48:56.192Z,2.47
2022-10-04T05:51:26.397Z,2.90
2022-10-04T05:53:55.153Z,2.93
2022-10-04T05:56:35.790Z,3.20
2022-10-04T05:59:07.699Z,3.10
2022-10-04T06:01:41.733Z,2.50
2022-10-04T06:04:22.921Z,2.40
2022-10-04T06:06:56.370Z,3.10
2022-10-04T06:09:33.874Z,2.90
2022-10-04T06:12:03.658Z,2.30
2022-10-04T06:14:39.377Z,2.47
2022-10-04T06:17:19.239Z,2.20
2022-10-04T06:19:54.193Z,2.53
2022-10-04T06:22:26.636Z,2.10
2022-10-04T06:24:57.416Z,1.97
2022-10-04T06:27:31.535Z,2.10
2022-10-04T06:30:01.127Z,1.93
2022-10-04T06:32:35.413Z,1.70
2022-10-04T06:35:11.047Z,1.57
2022-10-04T06:37:53.094Z,1.70
2022-10-04T06:40:37.150Z,1.60
2022-10-04T06:43:19.202Z,1.17
2022-10-04T06:45:53.869Z,1.90
2022-10-04T06:48:30.523Z,1.77
2022-10-04T06:51:02.795Z,1.57
2022-10-04T06:53:36.963Z,1.43
2022-10-04T06:56:12.993Z,1.50
2022-10-04T06:58:59.643Z,1.50
2022-10-04T07:01:29.211Z,1.43
2022-10-04T07:03:59.738Z,1.80
2022-10-04T07:06:30.506Z,1.60
2022-10-04T07:09:02.755Z,1.30
2022-10-04T07:11:33.454Z,1.63
2022-10-04T07:14:06.361Z,1.43
2022-10-04T07:16:37.854Z,1.23
2022-10-04T07:19:09.682Z,1.60
2022-10-04T07:21:40.177Z,1.47
2022-10-04T07:24:10.573Z,1.70
2022-10-04T07:26:39.228Z,1.67
2022-10-04T07:29:21.552Z,1.77
2022-10-04T07:31:51.715Z,2.17
2022-10-04T07:34:22.328Z,1.53
2022-10-04T07:36:51.437Z,1.70
2022-10-04T07:39:24.493Z,1.50
2022-10-04T07:41:53.730Z,1.67
2022-10-04T07:44:27.483Z,1.60
2022-10-04T07:46:56.582Z,1.63
2022-10-04T07:49:24.070Z,1.50
2022-10-04T07:51:57.602Z,1.50
2022-10-04T07:54:33.349Z,1.73
2022-10-04T07:57:02.287Z,1.50
2022-10-04T07:59:38.058Z,0.90
2022-10-04T08:02:14.581Z,1.30
2022-10-04T08:04:46.431Z,1.20
2022-10-04T08:07:16.378Z,1.07
2022-10-04T08:09:49.542Z,1.30
2022-10-04T08:12:22.232Z,1.30
2022-10-04T08:15:10.406Z,1.40
2022-10-04T08:17:42.724Z,1.20
2022-10-04T08:20:25.519Z,1.40
2022-10-04T08:22:57.855Z,1.53
2022-10-04T08:25:28.842Z,1.47
2022-10-04T08:28:18.997Z,1.10
2022-10-04T08:31:00.490Z,1.30
2022-10-04T08:33:32.399Z,1.60
2022-10-04T08:36:05.329Z,0.90
2022-10-04T08:38:37.545Z,0.80
2022-10-04T08:41:24.193Z,1.10
2022-10-04T08:44:10.518Z,1.30
2022-10-04T08:46:44.202Z,1.00
2022-10-04T08:49:23.572Z,1.20
2022-10-04T08:52:13.541Z,1.20
2022-10-04T08:55:00.216Z,0.80
2022-10-04T08:57:45.778Z,1.27
2022-10-04T09:00:15.829Z,1.73
2022-10-04T09:02:54.741Z,1.07
2022-10-04T09:05:38.756Z,1.00
2022-10-04T09:08:27.230Z,0.97
2022-10-04T09:11:06.846Z,1.00
2022-10-04T09:13:39.790Z,0.90
2022-10-04T09:16:16.005Z,0.93
2022-10-04T09:18:54.034Z,0.80
2022-10-04T09:21:28.759Z,1.13
2022-10-04T09:24:14.857Z,1.37
2022-10-04T09:26:45.952Z,1.20
2022-10-04T09:29:39.641Z,1.20
2022-10-04T09:32:23.387Z,1.10
2022-10-04T09:35:00.651Z,1.30
2022-10-04T09:37:37.575Z,1.20
2022-10-04T09:40:23.015Z,1.20
2022-10-04T09:43:21.509Z,1.07
2022-10-04T09:46:05.842Z,1.20
2022-10-04T09:48:43.084Z,1.40
2022-10-04T09:51:31.388Z,1.00
2022-10-04T09:54:12.531Z,1.83
2022-10-04T09:57:03.925Z,1.40
2022-10-04T09:59:41.012Z,0.93
2022-10-04T10:02:29.098Z,1.60
2022-10-04T10:05:07.859Z,1.00
2022-10-04T10:07:39.835Z,1.20
2022-10-04T10:10:34.037Z,1.10
2022-10-04T10:13:32.313Z,1.30
2022-10-04T10:16:01.881Z,1.30
2022-10-04T10:18:37.976Z,1.37
2022-10-04T10:21:12.738Z,1.10
2022-10-04T10:23:51.305Z,1.20
2022-10-04T10:26:26.853Z,1.20
2022-10-04T10:29:14.786Z,1.03
2022-10-04T10:31:54.442Z,1.60
2022-10-04T10:34:42.186Z,0.97
2022-10-04T10:37:13.516Z,0.90
2022-10-04T10:39:59.033Z,0.90
2022-10-04T10:42:41.377Z,1.10
2022-10-04T10:45:16.746Z,1.00
2022-10-04T10:47:50.276Z,1.27
2022-10-04T10:50:26.130Z,0.70
2022-10-04T10:53:09.812Z,1.10
2022-10-04T10:55:56.143Z,0.70
2022-10-04T10:58:38.477Z,0.60
2022-10-04T11:01:17.230Z,0.80
2022-10-04T11:04:03.459Z,0.90
2022-10-04T11:06:41.719Z,0.90
2022-10-04T11:09:30.263Z,0.67
2022-10-04T11:12:12.787Z,0.83
2022-10-04T11:14:59.442Z,1.10
2022-10-04T11:17:44.874Z,0.90
2022-10-04T11:20:20.891Z,0.77
2022-10-04T11:23:04.222Z,1.00
2022-10-04T11:25:57.583Z,0.80
2022-10-04T11:28:30.525Z,0.73
2022-10-04T11:31:17.298Z,0.87
2022-10-04T11:34:03.486Z,0.80
2022-10-04T11:36:34.013Z,0.80
2022-10-04T11:39:20.523Z,0.83
2022-10-04T11:41:51.554Z,0.70
2022-10-04T11:44:30.949Z,0.80
2022-10-04T11:47:00.898Z,0.73
2022-10-04T11:49:38.315Z,0.70
2022-10-04T11:52:29.774Z,1.03
2022-10-04T11:55:13.037Z,0.70
2022-10-04T11:57:44.161Z,0.70
2022-10-04T12:00:16.099Z,0.63
2022-10-04T12:03:16.892Z,0.70
2022-10-04T12:06:01.150Z,0.90
2022-10-04T12:08:32.841Z,0.97
2022-10-04T12:11:12.031Z,0.80
2022-10-04T12:13:42.798Z,0.83
2022-10-04T12:16:29.762Z,0.97
2022-10-04T12:19:09.780Z,0.50
2022-10-04T12:21:40.773Z,0.70
2022-10-04T12:24:23.949Z,1.00
2022-10-04T12:26:59.678Z,0.80
2022-10-04T12:29:37.882Z,0.60
2022-10-04T12:32:10.658Z,0.80
2022-10-04T12:34:43.106Z,1.10
2022-10-04T12:37:17.417Z,0.90
2022-10-04T12:39:50.557Z,0.70
2022-10-04T12:42:22.990Z,0.70
2022-10-04T12:44:56.485Z,0.83
2022-10-04T12:47:43.639Z,0.63
2022-10-04T12:50:18.378Z,0.93
2022-10-04T12:52:51.078Z,0.63
2022-10-04T12:55:22.262Z,0.70
2022-10-04T12:57:51.635Z,0.60
2022-10-04T13:00:22.114Z,0.70
2022-10-04T13:03:05.314Z,0.60
2022-10-04T13:05:38.517Z,0.70
2022-10-04T13:08:19.230Z,0.77
2022-10-04T13:11:04.634Z,0.63
2022-10-04T13:13:41.136Z,1.03
2022-10-04T13:19:03.922Z,0.70
2022-10-04T13:21:51.684Z,0.80
2022-10-04T13:24:23.023Z,0.90
2022-10-04T13:26:55.534Z,0.70
2022-10-04T13:29:26.136Z,1.23
2022-10-04T13:31:58.398Z,0.77
2022-10-04T13:34:29.304Z,0.90
2022-10-04T13:37:20.407Z,0.80
2022-10-04T13:39:54.770Z,0.57
2022-10-04T13:42:30.503Z,0.90
2022-10-04T13:45:04.514Z,1.17
2022-10-04T13:47:39.325Z,0.50
2022-10-04T13:50:17.421Z,1.30
2022-10-04T13:53:08.731Z,1.00
2022-10-04T13:55:55.310Z,0.73
2022-10-04T13:58:35.540Z,0.67
2022-10-04T14:01:13.066Z,0.80
2022-10-04T14:03:47.849Z,1.00
2022-10-04T14:06:31.733Z,0.60
2022-10-04T14:09:23.457Z,0.60
2022-10-04T14:12:04.351Z,0.50
2022-10-04T14:14:54.152Z,0.60
2022-10-04T14:17:48.521Z,0.83
2022-10-04T14:20:34.467Z,0.70
2022-10-04T14:23:08.595Z,0.43
2022-10-04T14:25:51.687Z,0.60
2022-10-04T14:28:35.945Z,0.50
2022-10-04T14:31:12.798Z,0.63
2022-10-04T14:33:47.303Z,0.63
2022-10-04T14:36:32.934Z,0.60
2022-10-04T14:39:13.779Z,0.60
2022-10-04T14:41:59.181Z,0.60
2022-10-04T14:44:36.026Z,0.40
2022-10-04T14:47:13.214Z,0.40
2022-10-04T14:49:51.321Z,0.43
2022-10-04T14:52:30.177Z,0.40
2022-10-04T14:55:10.210Z,0.90
2022-10-04T14:57:43.385Z,0.40
2022-10-04T15:00:17.899Z,0.53
2022-10-04T15:03:15.347Z,0.67
2022-10-04T15:05:59.870Z,0.70
2022-10-04T15:08:54.097Z,0.40
2022-10-04T15:11:35.365Z,0.50
2022-10-04T15:14:05.317Z,0.57
2022-10-04T15:16:39.097Z,1.10
2022-10-04T15:19:11.155Z,0.57
2022-10-04T15:21:44.050Z,0.60
2022-10-04T15:24:28.569Z,0.50
2022-10-04T15:27:14.365Z,0.60
2022-10-04T15:29:44.952Z,0.70
2022-10-04T15:32:21.947Z,0.50
2022-10-04T15:35:00.510Z,0.50
2022-10-04T15:37:36.166Z,0.60
2022-10-04T15:40:16.463Z,0.80
2022-10-04T15:42:59.617Z,0.60
2022-10-04T15:45:49.865Z,0.43
2022-10-04T15:48:36.779Z,0.80
2022-10-04T15:51:07.813Z,0.57
2022-10-04T15:53:44.150Z,1.00
2022-10-04T15:56:27.135Z,1.13
2022-10-04T15:59:00.310Z,1.20
2022-10-04T16:01:39.383Z,1.80
2022-10-04T16:04:18.654Z,1.37
2022-10-04T16:06:48.992Z,1.50
2022-10-04T16:09:21.637Z,1.23
2022-10-04T16:11:59.283Z,0.80
2022-10-04T16:14:35.336Z,1.00
2022-10-04T16:17:21.393Z,1.00
2022-10-04T16:20:04.689Z,0.90
2022-10-04T16:22:32.938Z,0.57
2022-10-04T16:25:00.957Z,0.67
2022-10-04T16:27:43.737Z,0.57
2022-10-04T16:30:27.624Z,0.63
2022-10-04T16:33:29.079Z,0.70
2022-10-04T16:36:10.236Z,0.60
2022-10-04T16:39:04.478Z,0.77
2022-10-04T16:41:35.075Z,0.77
2022-10-04T16:44:03.907Z,0.50
2022-10-04T16:46:35.409Z,0.97
2022-10-04T16:49:04.967Z,1.00
2022-10-04T16:51:46.061Z,1.50
2022-10-04T16:54:28.088Z,2.00
2022-10-04T16:57:13.666Z,3.00
2022-10-04T16:59:46.713Z,2.97
2022-10-04T17:02:20.621Z,1.77
2022-10-04T17:04:55.478Z,2.27
2022-10-04T17:07:33.720Z,4.13
2022-10-04T17:10:06.895Z,6.53
2022-10-04T17:12:37.431Z,6.90
2022-10-04T17:15:27.529Z,6.50
2022-10-04T17:17:58.367Z,9.00
2022-10-04T17:20:29.477Z,11.10
2022-10-04T17:23:06.065Z,10.27
2022-10-04T17:25:36.756Z,9.27
2022-10-04T17:28:14.877Z,11.20
2022-10-04T17:30:46.699Z,10.27
2022-10-04T17:33:21.749Z,10.33
2022-10-04T17:36:00.095Z,5.47
2022-10-04T17:38:32.025Z,3.00
2022-10-04T17:41:05.191Z,3.60
2022-10-04T17:43:36.514Z,2.73
2022-10-04T17:46:10.242Z,3.13
2022-10-04T17:49:00.267Z,1.50
2022-10-04T17:51:57.053Z,1.40
2022-10-04T17:54:45.643Z,1.70
2022-10-04T17:57:17.259Z,2.57
2022-10-04T17:59:45.934Z,2.77
2022-10-04T18:02:17.679Z,1.90
2022-10-04T18:04:49.080Z,1.33
2022-10-04T18:07:20.251Z,1.40
2022-10-04T18:09:50.346Z,1.10
2022-10-04T18:12:25.575Z,1.30
2022-10-04T18:14:58.999Z,1.00
2022-10-04T18:17:32.957Z,1.47
2022-10-04T18:20:08.062Z,1.20
2022-10-04T18:22:43.357Z,1.47
2022-10-04T18:25:15.609Z,1.40
2022-10-04T18:27:51.102Z,1.30
2022-10-04T18:30:19.813Z,1.70
2022-10-04T18:32:48.571Z,1.47
2022-10-04T18:35:25.073Z,1.70
2022-10-04T18:37:53.443Z,1.73
2022-10-04T18:40:24.190Z,1.70
2022-10-04T18:42:53.342Z,1.70
2022-10-04T18:45:22.446Z,1.63
2022-10-04T18:47:52.399Z,1.70
2022-10-04T18:50:26.701Z,1.70
2022-10-04T18:53:05.088Z,2.00
2022-10-04T18:55:39.709Z,1.60
2022-10-04T18:58:29.450Z,1.70
2022-10-04T19:01:27.176Z,1.47
2022-10-04T19:03:58.489Z,2.60
2022-10-04T19:06:27.611Z,2.10
2022-10-04T19:09:01.905Z,2.40
2022-10-04T19:11:34.182Z,1.90
2022-10-04T19:14:08.384Z,1.60
2022-10-04T19:16:41.831Z,1.40
2022-10-04T19:19:33.731Z,1.90
2022-10-04T19:22:02.355Z,2.17
2022-10-04T19:24:41.519Z,1.50
2022-10-04T19:27:15.417Z,1.23
2022-10-04T19:29:51.346Z,0.90
2022-10-04T19:32:25.837Z,1.07
2022-10-04T19:34:57.983Z,1.47
2022-10-04T19:37:27.537Z,1.10
2022-10-04T19:40:03.480Z,1.80
2022-10-04T19:42:39.545Z,2.10
2022-10-04T19:45:15.766Z,1.17
2022-10-04T19:47:49.187Z,1.00
2022-10-04T19:50:18.951Z,1.70
2022-10-04T19:52:49.627Z,1.40
2022-10-04T19:55:21.041Z,1.20
2022-10-04T19:57:51.471Z,1.70
2022-10-04T20:00:20.198Z,0.80
2022-10-04T20:02:49.059Z,1.00
2022-10-04T20:05:20.027Z,0.80
2022-10-04T20:07:51.351Z,0.70
2022-10-04T20:10:33.428Z,0.90
2022-10-04T20:13:23.591Z,0.63
2022-10-04T20:15:52.281Z,0.80
2022-10-04T20:18:38.582Z,0.97
2022-10-04T20:21:07.154Z,1.00
2022-10-04T20:23:56.658Z,0.90
2022-10-04T20:26:53.353Z,1.20
2022-10-04T20:29:36.287Z,1.00
2022-10-04T20:32:06.020Z,0.83
2022-10-04T20:34:35.385Z,0.90
2022-10-04T20:37:03.565Z,1.20
2022-10-04T20:40:01.342Z,1.10
2022-10-04T20:42:33.659Z,0.80
2022-10-04T20:45:18.758Z,1.00
2022-10-04T20:47:49.114Z,1.23
2022-10-04T20:50:31.884Z,1.00
2022-10-04T20:53:00.693Z,0.90
2022-10-04T20:55:29.354Z,0.83
2022-10-04T20:57:57.414Z,1.00
2022-10-04T21:00:26.393Z,1.30
2022-10-04T21:03:12.553Z,1.10
2022-10-04T21:05:41.430Z,0.90
2022-10-04T21:08:16.382Z,1.23
2022-10-04T21:10:58.703Z,1.00
2022-10-04T21:13:41.892Z,0.97
2022-10-04T21:16:09.429Z,1.10
2022-10-04T21:18:36.915Z,1.30
2022-10-04T21:21:05.845Z,0.80
2022-10-04T21:23:34.412Z,0.90
2022-10-04T21:26:20.957Z,0.87
2022-10-04T21:28:48.721Z,1.30
2022-10-04T21:31:16.342Z,1.00
2022-10-04T21:33:43.861Z,0.93
2022-10-04T21:36:12.667Z,1.30
2022-10-04T21:38:40.134Z,1.17
2022-10-04T21:41:07.608Z,1.00
2022-10-04T21:43:35.290Z,1.00
2022-10-04T21:46:02.757Z,1.10
2022-10-04T21:48:30.337Z,1.37
2022-10-04T21:50:57.789Z,1.20
2022-10-04T21:53:26.658Z,1.00
2022-10-04T21:55:54.097Z,0.97
2022-10-04T21:58:21.545Z,1.10
2022-10-04T22:00:49.212Z,1.20
2022-10-04T22:03:16.750Z,1.20
2022-10-04T22:05:44.462Z,1.10
2022-10-04T22:08:12.053Z,1.07
2022-10-04T22:10:40.934Z,1.40
2022-10-04T22:13:08.402Z,1.17
2022-10-04T22:15:35.936Z,1.40
2022-10-04T22:18:03.383Z,1.30
2022-10-04T22:20:30.869Z,0.97
2022-10-04T22:22:59.723Z,1.00
2022-10-04T22:25:28.327Z,1.00
2022-10-04T22:27:57.122Z,0.90
2022-10-04T22:30:26.059Z,0.73
2022-10-04T22:32:55.217Z,0.70
2022-10-04T22:35:22.791Z,0.63
2022-10-04T22:37:50.386Z,1.10
2022-10-04T22:40:19.542Z,0.90
2022-10-04T22:42:49.806Z,0.57
2022-10-04T22:45:21.430Z,0.87
2022-10-04T22:47:49.199Z,0.90
2022-10-04T22:50:33.228Z,0.60
2022-10-04T22:53:03.228Z,0.60
2022-10-04T22:55:30.813Z,0.60
2022-10-04T22:57:58.344Z,0.57
2022-10-04T23:00:27.156Z,0.63
2022-10-04T23:02:55.771Z,0.53
2022-10-04T23:05:23.330Z,0.70
2022-10-04T23:07:50.851Z,0.80
2022-10-04T23:10:19.515Z,0.70
2022-10-04T23:12:47.531Z,0.60
2022-10-04T23:15:15.879Z,0.70
2022-10-04T23:17:44.739Z,0.60
2022-10-04T23:20:13.621Z,0.80
2022-10-04T23:22:43.485Z,0.70
2022-10-04T23:25:14.394Z,1.10
2022-10-04T23:27:42.246Z,0.70
2022-10-04T23:30:11.327Z,0.87
2022-10-04T23:32:38.789Z,0.67
2022-10-04T23:35:14.627Z,1.00
2022-10-04T23:37:42.320Z,0.60
2022-10-04T23:40:10.270Z,0.57
2022-10-04T23:42:37.734Z,0.80
2022-10-04T23:45:12.587Z,0.70
2022-10-04T23:47:40.169Z,0.53
2022-10-04T23:50:17.971Z,0.60
2022-10-04T23:52:45.817Z,0.67
2022-10-04T23:55:17.011Z,0.70
2022-10-04T23:57:44.483Z,0.50
